sensor_id;sensor_type;location;lat;lon;timestamp;temperature;humidity
2907;DHT22;1463;51.070;16.998;2023-03-23T00:00:00;13.30;99.90
2907;DHT22;1463;51.070;16.998;2023-03-23T00:02:30;13.20;99.90
2907;DHT22;1463;51.070;16.998;2023-03-23T00:04:59;13.10;99.90
2907;DHT22;1463;51.070;16.998;2023-03-23T00:07:29;13.10;99.90
2907;DHT22;1463;51.070;16.998;2023-03-23T00:09:56;13.10;99.90
2907;DHT22;1463;51.070;16.998;2023-03-23T00:12:26;13.10;99.90
2907;DHT22;1463;51.070;16.998;2023-03-23T00:15:01;13.10;99.90
2907;DHT22;1463;51.070;16.998;2023-03-23T00:17:30;12.80;99.90
2907;DHT22;1463;51.070;16.998;2023-03-23T00:20:01;12.80;99.90
2907;DHT22;1463;51.070;16.998;2023-03-23T00:22:31;12.70;99.90
2907;DHT22;1463;51.070;16.998;2023-03-23T00:25:03;12.40;99.90
2907;DHT22;1463;51.070;16.998;2023-03-23T00:27:31;12.40;99.90
2907;DHT22;1463;51.070;16.998;2023-03-23T00:29:59;12.30;99.90
2907;DHT22;1463;51.070;16.998;2023-03-23T00:32:26;12.40;99.90
2907;DHT22;1463;51.070;16.998;2023-03-23T00:34:54;12.30;99.90
2907;DHT22;1463;51.070;16.998;2023-03-23T00:37:23;12.30;99.90
2907;DHT22;1463;51.070;16.998;2023-03-23T00:39:51;12.40;99.90
2907;DHT22;1463;51.070;16.998;2023-03-23T00:42:23;12.20;99.90
2907;DHT22;1463;51.070;16.998;2023-03-23T00:44:52;12.00;99.90
2907;DHT22;1463;51.070;16.998;2023-03-23T00:47:26;12.00;99.90
2907;DHT22;1463;51.070;16.998;2023-03-23T00:49:53;12.10;99.90
2907;DHT22;1463;51.070;16.998;2023-03-23T00:52:26;12.00;99.90
2907;DHT22;1463;51.070;16.998;2023-03-23T00:54:53;11.90;99.90
2907;DHT22;1463;51.070;16.998;2023-03-23T00:57:21;11.90;99.90
2907;DHT22;1463;51.070;16.998;2023-03-23T00:59:50;11.90;99.90
2907;DHT22;1463;51.070;16.998;2023-03-23T01:02:19;12.00;99.90
2907;DHT22;1463;51.070;16.998;2023-03-23T01:04:50;12.10;99.90
2907;DHT22;1463;51.070;16.998;2023-03-23T01:07:20;12.20;99.90
2907;DHT22;1463;51.070;16.998;2023-03-23T01:09:50;12.20;99.90
2907;DHT22;1463;51.070;16.998;2023-03-23T01:12:19;12.30;99.90
2907;DHT22;1463;51.070;16.998;2023-03-23T01:14:46;12.40;99.90
2907;DHT22;1463;51.070;16.998;2023-03-23T01:17:14;12.40;99.90
2907;DHT22;1463;51.070;16.998;2023-03-23T01:19:41;12.50;99.90
2907;DHT22;1463;51.070;16.998;2023-03-23T01:22:09;12.40;99.90
2907;DHT22;1463;51.070;16.998;2023-03-23T01:24:36;12.50;99.90
2907;DHT22;1463;51.070;16.998;2023-03-23T01:27:05;12.70;99.90
2907;DHT22;1463;51.070;16.998;2023-03-23T01:29:33;12.60;99.90
2907;DHT22;1463;51.070;16.998;2023-03-23T01:32:01;12.70;99.90
2907;DHT22;1463;51.070;16.998;2023-03-23T01:34:28;12.60;99.90
2907;DHT22;1463;51.070;16.998;2023-03-23T01:36:58;12.60;99.90
2907;DHT22;1463;51.070;16.998;2023-03-23T01:39:26;12.50;99.90
2907;DHT22;1463;51.070;16.998;2023-03-23T01:41:53;12.50;99.90
2907;DHT22;1463;51.070;16.998;2023-03-23T01:47:27;12.50;99.90
2907;DHT22;1463;51.070;16.998;2023-03-23T01:49:54;12.60;99.90
2907;DHT22;1463;51.070;16.998;2023-03-23T01:52:23;12.60;99.90
2907;DHT22;1463;51.070;16.998;2023-03-23T01:54:54;12.60;99.90
2907;DHT22;1463;51.070;16.998;2023-03-23T01:57:24;12.60;99.90
2907;DHT22;1463;51.070;16.998;2023-03-23T01:59:55;12.70;99.90
2907;DHT22;1463;51.070;16.998;2023-03-23T02:02:26;12.60;99.90
2907;DHT22;1463;51.070;16.998;2023-03-23T02:04:57;12.50;99.90
2907;DHT22;1463;51.070;16.998;2023-03-23T02:07:26;12.40;99.90
2907;DHT22;1463;51.070;16.998;2023-03-23T02:09:54;12.30;99.90
2907;DHT22;1463;51.070;16.998;2023-03-23T02:12:26;12.20;99.90
2907;DHT22;1463;51.070;16.998;2023-03-23T02:14:53;12.10;99.90
2907;DHT22;1463;51.070;16.998;2023-03-23T02:17:27;12.10;99.90
2907;DHT22;1463;51.070;16.998;2023-03-23T02:20:11;12.10;99.90
2907;DHT22;1463;51.070;16.998;2023-03-23T02:22:59;12.10;99.90
2907;DHT22;1463;51.070;16.998;2023-03-23T02:25:41;12.00;99.90
2907;DHT22;1463;51.070;16.998;2023-03-23T02:28:26;12.10;99.90
2907;DHT22;1463;51.070;16.998;2023-03-23T02:31:18;12.10;99.90
2907;DHT22;1463;51.070;16.998;2023-03-23T02:33:53;12.10;99.90
2907;DHT22;1463;51.070;16.998;2023-03-23T02:36:29;12.20;99.90
2907;DHT22;1463;51.070;16.998;2023-03-23T02:39:01;12.40;99.90
2907;DHT22;1463;51.070;16.998;2023-03-23T02:41:34;12.50;99.90
2907;DHT22;1463;51.070;16.998;2023-03-23T02:44:04;12.50;99.90
2907;DHT22;1463;51.070;16.998;2023-03-23T02:46:36;12.50;99.90
2907;DHT22;1463;51.070;16.998;2023-03-23T02:49:06;12.60;99.90
2907;DHT22;1463;51.070;16.998;2023-03-23T02:51:35;12.50;99.90
2907;DHT22;1463;51.070;16.998;2023-03-23T02:54:05;12.40;99.90
2907;DHT22;1463;51.070;16.998;2023-03-23T02:56:33;12.30;99.90
2907;DHT22;1463;51.070;16.998;2023-03-23T02:59:02;12.20;99.90
2907;DHT22;1463;51.070;16.998;2023-03-23T03:01:51;12.20;99.90
2907;DHT22;1463;51.070;16.998;2023-03-23T03:04:22;12.30;99.90
2907;DHT22;1463;51.070;16.998;2023-03-23T03:07:05;12.20;99.90
2907;DHT22;1463;51.070;16.998;2023-03-23T03:09:42;12.10;99.90
2907;DHT22;1463;51.070;16.998;2023-03-23T03:12:15;12.20;99.90
2907;DHT22;1463;51.070;16.998;2023-03-23T03:14:51;12.10;99.90
2907;DHT22;1463;51.070;16.998;2023-03-23T03:17:24;12.10;99.90
2907;DHT22;1463;51.070;16.998;2023-03-23T03:19:56;12.00;99.90
2907;DHT22;1463;51.070;16.998;2023-03-23T03:22:25;12.00;99.90
2907;DHT22;1463;51.070;16.998;2023-03-23T03:24:57;12.00;99.90
2907;DHT22;1463;51.070;16.998;2023-03-23T03:27:26;12.10;99.90
2907;DHT22;1463;51.070;16.998;2023-03-23T03:29:56;12.10;99.90
2907;DHT22;1463;51.070;16.998;2023-03-23T03:32:30;12.10;99.90
2907;DHT22;1463;51.070;16.998;2023-03-23T03:35:01;12.20;99.90
2907;DHT22;1463;51.070;16.998;2023-03-23T03:37:34;12.20;99.90
2907;DHT22;1463;51.070;16.998;2023-03-23T03:40:05;12.30;99.90
2907;DHT22;1463;51.070;16.998;2023-03-23T03:42:38;12.20;99.90
2907;DHT22;1463;51.070;16.998;2023-03-23T03:45:07;12.20;99.90
2907;DHT22;1463;51.070;16.998;2023-03-23T03:47:36;12.10;99.90
2907;DHT22;1463;51.070;16.998;2023-03-23T03:50:06;12.10;99.90
2907;DHT22;1463;51.070;16.998;2023-03-23T03:52:34;12.20;99.90
2907;DHT22;1463;51.070;16.998;2023-03-23T03:55:04;12.20;99.90
2907;DHT22;1463;51.070;16.998;2023-03-23T03:57:32;12.20;99.90
2907;DHT22;1463;51.070;16.998;2023-03-23T04:00:00;12.00;99.90
2907;DHT22;1463;51.070;16.998;2023-03-23T04:02:38;12.00;99.90
2907;DHT22;1463;51.070;16.998;2023-03-23T04:05:08;11.90;99.90
2907;DHT22;1463;51.070;16.998;2023-03-23T04:07:37;11.90;99.90
2907;DHT22;1463;51.070;16.998;2023-03-23T04:10:06;11.90;99.90
2907;DHT22;1463;51.070;16.998;2023-03-23T04:12:34;12.00;99.90
2907;DHT22;1463;51.070;16.998;2023-03-23T04:15:02;12.00;99.90
2907;DHT22;1463;51.070;16.998;2023-03-23T04:17:29;12.00;99.90
2907;DHT22;1463;51.070;16.998;2023-03-23T04:19:57;12.00;99.90
2907;DHT22;1463;51.070;16.998;2023-03-23T04:22:27;12.00;99.90
2907;DHT22;1463;51.070;16.998;2023-03-23T04:25:00;12.00;99.90
2907;DHT22;1463;51.070;16.998;2023-03-23T04:27:32;12.00;99.90
2907;DHT22;1463;51.070;16.998;2023-03-23T04:30:00;12.00;99.90
2907;DHT22;1463;51.070;16.998;2023-03-23T04:32:29;12.10;99.90
2907;DHT22;1463;51.070;16.998;2023-03-23T04:34:56;12.10;99.90
2907;DHT22;1463;51.070;16.998;2023-03-23T04:37:27;12.10;99.90
2907;DHT22;1463;51.070;16.998;2023-03-23T04:39:55;12.00;99.90
2907;DHT22;1463;51.070;16.998;2023-03-23T04:42:29;12.00;99.90
2907;DHT22;1463;51.070;16.998;2023-03-23T04:44:58;12.10;99.90
2907;DHT22;1463;51.070;16.998;2023-03-23T04:47:26;12.10;99.90
2907;DHT22;1463;51.070;16.998;2023-03-23T04:49:55;12.10;99.90
2907;DHT22;1463;51.070;16.998;2023-03-23T04:52:24;12.20;99.90
2907;DHT22;1463;51.070;16.998;2023-03-23T04:54:53;12.30;99.90
2907;DHT22;1463;51.070;16.998;2023-03-23T04:57:21;12.40;99.90
2907;DHT22;1463;51.070;16.998;2023-03-23T04:59:49;12.40;99.90
2907;DHT22;1463;51.070;16.998;2023-03-23T05:02:16;12.50;99.90
2907;DHT22;1463;51.070;16.998;2023-03-23T05:04:44;12.50;99.90
2907;DHT22;1463;51.070;16.998;2023-03-23T05:07:12;12.50;99.90
2907;DHT22;1463;51.070;16.998;2023-03-23T05:09:39;12.50;99.90
2907;DHT22;1463;51.070;16.998;2023-03-23T05:12:10;12.50;99.90
2907;DHT22;1463;51.070;16.998;2023-03-23T05:14:41;12.50;99.90
2907;DHT22;1463;51.070;16.998;2023-03-23T05:17:08;12.50;99.90
2907;DHT22;1463;51.070;16.998;2023-03-23T05:19:36;12.50;99.90
2907;DHT22;1463;51.070;16.998;2023-03-23T05:22:05;12.40;99.90
2907;DHT22;1463;51.070;16.998;2023-03-23T05:24:33;12.50;99.90
2907;DHT22;1463;51.070;16.998;2023-03-23T05:27:00;12.50;99.90
2907;DHT22;1463;51.070;16.998;2023-03-23T05:29:30;12.50;99.90
2907;DHT22;1463;51.070;16.998;2023-03-23T05:31:58;12.70;99.90
2907;DHT22;1463;51.070;16.998;2023-03-23T05:34:26;12.60;99.90
2907;DHT22;1463;51.070;16.998;2023-03-23T05:36:55;12.70;99.90
2907;DHT22;1463;51.070;16.998;2023-03-23T05:39:23;12.70;99.90
2907;DHT22;1463;51.070;16.998;2023-03-23T05:41:51;12.70;99.90
2907;DHT22;1463;51.070;16.998;2023-03-23T05:44:18;12.70;99.90
2907;DHT22;1463;51.070;16.998;2023-03-23T05:46:47;12.70;99.90
2907;DHT22;1463;51.070;16.998;2023-03-23T05:49:15;12.80;99.90
2907;DHT22;1463;51.070;16.998;2023-03-23T05:51:43;12.90;99.90
2907;DHT22;1463;51.070;16.998;2023-03-23T05:54:11;12.90;99.90
2907;DHT22;1463;51.070;16.998;2023-03-23T05:56:40;13.00;99.90
2907;DHT22;1463;51.070;16.998;2023-03-23T05:59:07;13.00;99.90
2907;DHT22;1463;51.070;16.998;2023-03-23T06:01:36;13.00;99.90
2907;DHT22;1463;51.070;16.998;2023-03-23T06:04:05;13.10;99.90
2907;DHT22;1463;51.070;16.998;2023-03-23T06:06:32;13.10;99.90
2907;DHT22;1463;51.070;16.998;2023-03-23T06:09:04;13.10;99.90
2907;DHT22;1463;51.070;16.998;2023-03-23T06:11:32;13.20;99.90
2907;DHT22;1463;51.070;16.998;2023-03-23T06:14:01;13.20;99.90
2907;DHT22;1463;51.070;16.998;2023-03-23T06:16:29;13.20;99.90
2907;DHT22;1463;51.070;16.998;2023-03-23T06:18:56;13.30;99.90
2907;DHT22;1463;51.070;16.998;2023-03-23T06:21:27;13.30;99.90
2907;DHT22;1463;51.070;16.998;2023-03-23T06:23:55;13.20;99.90
2907;DHT22;1463;51.070;16.998;2023-03-23T06:26:27;13.40;99.90
2907;DHT22;1463;51.070;16.998;2023-03-23T06:28:55;13.50;99.90
2907;DHT22;1463;51.070;16.998;2023-03-23T06:31:24;13.40;99.90
2907;DHT22;1463;51.070;16.998;2023-03-23T06:33:52;13.50;99.90
2907;DHT22;1463;51.070;16.998;2023-03-23T06:36:19;13.40;99.90
2907;DHT22;1463;51.070;16.998;2023-03-23T06:38:50;13.50;99.90
2907;DHT22;1463;51.070;16.998;2023-03-23T06:41:17;13.50;99.90
2907;DHT22;1463;51.070;16.998;2023-03-23T06:43:44;13.60;99.90
2907;DHT22;1463;51.070;16.998;2023-03-23T06:46:12;13.50;99.90
2907;DHT22;1463;51.070;16.998;2023-03-23T06:48:39;13.60;99.90
2907;DHT22;1463;51.070;16.998;2023-03-23T06:51:07;13.70;99.90
2907;DHT22;1463;51.070;16.998;2023-03-23T06:53:35;13.80;99.90
2907;DHT22;1463;51.070;16.998;2023-03-23T06:56:04;13.80;99.90
2907;DHT22;1463;51.070;16.998;2023-03-23T06:58:32;13.90;99.90
2907;DHT22;1463;51.070;16.998;2023-03-23T07:01:01;13.90;99.90
2907;DHT22;1463;51.070;16.998;2023-03-23T07:03:28;14.00;99.90
2907;DHT22;1463;51.070;16.998;2023-03-23T07:05:57;14.10;99.90
2907;DHT22;1463;51.070;16.998;2023-03-23T07:08:24;14.10;99.90
2907;DHT22;1463;51.070;16.998;2023-03-23T07:10:53;14.20;99.90
2907;DHT22;1463;51.070;16.998;2023-03-23T07:13:22;14.30;99.90
2907;DHT22;1463;51.070;16.998;2023-03-23T07:15:50;14.30;99.90
2907;DHT22;1463;51.070;16.998;2023-03-23T07:18:17;14.30;99.90
2907;DHT22;1463;51.070;16.998;2023-03-23T07:20:47;14.60;99.90
2907;DHT22;1463;51.070;16.998;2023-03-23T07:23:15;14.60;99.90
2907;DHT22;1463;51.070;16.998;2023-03-23T07:25:44;14.70;99.90
2907;DHT22;1463;51.070;16.998;2023-03-23T07:28:12;14.60;99.90
2907;DHT22;1463;51.070;16.998;2023-03-23T07:30:41;14.60;99.90
2907;DHT22;1463;51.070;16.998;2023-03-23T07:33:10;14.70;99.90
2907;DHT22;1463;51.070;16.998;2023-03-23T07:35:38;14.60;99.90
2907;DHT22;1463;51.070;16.998;2023-03-23T07:38:06;14.60;99.90
2907;DHT22;1463;51.070;16.998;2023-03-23T07:40:34;14.60;99.90
2907;DHT22;1463;51.070;16.998;2023-03-23T07:43:03;14.60;99.90
2907;DHT22;1463;51.070;16.998;2023-03-23T07:45:31;14.60;99.90
2907;DHT22;1463;51.070;16.998;2023-03-23T07:48:00;14.70;99.90
2907;DHT22;1463;51.070;16.998;2023-03-23T07:50:28;14.80;99.90
2907;DHT22;1463;51.070;16.998;2023-03-23T07:52:56;15.00;99.90
2907;DHT22;1463;51.070;16.998;2023-03-23T07:55:24;15.30;99.90
2907;DHT22;1463;51.070;16.998;2023-03-23T07:57:55;15.50;99.90
2907;DHT22;1463;51.070;16.998;2023-03-23T08:00:24;15.50;99.90
2907;DHT22;1463;51.070;16.998;2023-03-23T08:02:53;15.50;99.90
2907;DHT22;1463;51.070;16.998;2023-03-23T08:05:23;15.60;99.90
2907;DHT22;1463;51.070;16.998;2023-03-23T08:07:52;15.70;99.90
2907;DHT22;1463;51.070;16.998;2023-03-23T08:10:20;15.60;99.90
2907;DHT22;1463;51.070;16.998;2023-03-23T08:12:51;15.50;99.90
2907;DHT22;1463;51.070;16.998;2023-03-23T08:15:19;15.50;99.90
2907;DHT22;1463;51.070;16.998;2023-03-23T08:17:47;15.50;99.90
2907;DHT22;1463;51.070;16.998;2023-03-23T08:20:16;15.50;99.90
2907;DHT22;1463;51.070;16.998;2023-03-23T08:22:50;15.60;99.90
2907;DHT22;1463;51.070;16.998;2023-03-23T08:25:19;15.70;99.90
2907;DHT22;1463;51.070;16.998;2023-03-23T08:27:46;15.80;99.90
2907;DHT22;1463;51.070;16.998;2023-03-23T08:30:16;17.00;99.90
2907;DHT22;1463;51.070;16.998;2023-03-23T08:32:46;18.60;99.20
2907;DHT22;1463;51.070;16.998;2023-03-23T08:35:14;19.00;95.00
2907;DHT22;1463;51.070;16.998;2023-03-23T08:37:42;20.70;90.40
2907;DHT22;1463;51.070;16.998;2023-03-23T08:40:13;23.40;78.40
2907;DHT22;1463;51.070;16.998;2023-03-23T08:42:42;24.90;67.40
2907;DHT22;1463;51.070;16.998;2023-03-23T08:45:14;23.20;63.40
2907;DHT22;1463;51.070;16.998;2023-03-23T08:47:42;21.70;66.40
2907;DHT22;1463;51.070;16.998;2023-03-23T08:50:12;20.50;69.80
2907;DHT22;1463;51.070;16.998;2023-03-23T08:52:41;19.60;72.40
2907;DHT22;1463;51.070;16.998;2023-03-23T08:55:11;19.30;74.00
2907;DHT22;1463;51.070;16.998;2023-03-23T08:57:39;18.90;75.60
2907;DHT22;1463;51.070;16.998;2023-03-23T09:00:11;18.60;76.50
2907;DHT22;1463;51.070;16.998;2023-03-23T09:02:44;18.50;77.60
2907;DHT22;1463;51.070;16.998;2023-03-23T09:05:11;18.30;78.10
2907;DHT22;1463;51.070;16.998;2023-03-23T09:07:40;18.10;79.20
2907;DHT22;1463;51.070;16.998;2023-03-23T09:10:09;18.20;79.80
2907;DHT22;1463;51.070;16.998;2023-03-23T09:12:41;17.90;79.20
2907;DHT22;1463;51.070;16.998;2023-03-23T09:15:11;17.90;80.30
2907;DHT22;1463;51.070;16.998;2023-03-23T09:17:40;17.80;80.50
2907;DHT22;1463;51.070;16.998;2023-03-23T09:20:09;17.70;82.30
2907;DHT22;1463;51.070;16.998;2023-03-23T09:22:39;17.60;83.10
2907;DHT22;1463;51.070;16.998;2023-03-23T09:25:08;17.60;84.50
2907;DHT22;1463;51.070;16.998;2023-03-23T09:27:36;17.70;87.00
2907;DHT22;1463;51.070;16.998;2023-03-23T09:30:09;17.70;87.60
2907;DHT22;1463;51.070;16.998;2023-03-23T09:32:38;17.70;88.30
2907;DHT22;1463;51.070;16.998;2023-03-23T09:35:07;17.90;88.40
2907;DHT22;1463;51.070;16.998;2023-03-23T09:37:37;18.00;87.50
2907;DHT22;1463;51.070;16.998;2023-03-23T09:40:12;18.30;87.00
2907;DHT22;1463;51.070;16.998;2023-03-23T09:46:04;18.50;84.30
2907;DHT22;1463;51.070;16.998;2023-03-23T09:48:49;18.60;84.00
2907;DHT22;1463;51.070;16.998;2023-03-23T09:51:32;18.50;83.20
2907;DHT22;1463;51.070;16.998;2023-03-23T09:54:12;18.30;83.60
2907;DHT22;1463;51.070;16.998;2023-03-23T09:56:43;18.20;83.70
2907;DHT22;1463;51.070;16.998;2023-03-23T09:59:18;18.10;84.50
2907;DHT22;1463;51.070;16.998;2023-03-23T10:01:51;18.10;84.90
2907;DHT22;1463;51.070;16.998;2023-03-23T10:04:33;18.20;85.20
2907;DHT22;1463;51.070;16.998;2023-03-23T10:07:15;18.30;85.90
2907;DHT22;1463;51.070;16.998;2023-03-23T10:09:46;18.30;85.20
2907;DHT22;1463;51.070;16.998;2023-03-23T10:12:27;18.40;85.10
2907;DHT22;1463;51.070;16.998;2023-03-23T10:15:10;18.50;84.70
2907;DHT22;1463;51.070;16.998;2023-03-23T10:17:46;18.80;84.10
2907;DHT22;1463;51.070;16.998;2023-03-23T10:20:27;18.90;83.50
2907;DHT22;1463;51.070;16.998;2023-03-23T10:23:41;19.20;82.90
2907;DHT22;1463;51.070;16.998;2023-03-23T10:26:17;20.10;82.10
2907;DHT22;1463;51.070;16.998;2023-03-23T10:28:52;21.50;76.60
2907;DHT22;1463;51.070;16.998;2023-03-23T10:31:26;21.60;74.60
2907;DHT22;1463;51.070;16.998;2023-03-23T10:34:10;20.90;73.50
2907;DHT22;1463;51.070;16.998;2023-03-23T10:36:51;20.00;74.00
2907;DHT22;1463;51.070;16.998;2023-03-23T10:39:26;19.50;75.60
2907;DHT22;1463;51.070;16.998;2023-03-23T10:41:56;19.20;76.10
2907;DHT22;1463;51.070;16.998;2023-03-23T10:44:34;19.10;76.70
2907;DHT22;1463;51.070;16.998;2023-03-23T10:47:05;19.00;77.20
2907;DHT22;1463;51.070;16.998;2023-03-23T10:49:38;18.90;77.70
2907;DHT22;1463;51.070;16.998;2023-03-23T10:52:29;18.80;78.70
2907;DHT22;1463;51.070;16.998;2023-03-23T10:55:07;18.80;79.50
2907;DHT22;1463;51.070;16.998;2023-03-23T10:57:38;18.80;78.90
2907;DHT22;1463;51.070;16.998;2023-03-23T11:00:17;18.90;78.20
2907;DHT22;1463;51.070;16.998;2023-03-23T11:02:48;19.10;78.90
2907;DHT22;1463;51.070;16.998;2023-03-23T11:05:34;19.10;78.40
2907;DHT22;1463;51.070;16.998;2023-03-23T11:08:20;19.20;78.50
2907;DHT22;1463;51.070;16.998;2023-03-23T11:10:51;19.20;78.10
2907;DHT22;1463;51.070;16.998;2023-03-23T11:13:22;19.20;77.90
2907;DHT22;1463;51.070;16.998;2023-03-23T11:15:51;19.10;78.00
2907;DHT22;1463;51.070;16.998;2023-03-23T11:18:22;19.00;78.20
2907;DHT22;1463;51.070;16.998;2023-03-23T11:20:56;19.00;78.80
2907;DHT22;1463;51.070;16.998;2023-03-23T11:23:32;19.00;78.80
2907;DHT22;1463;51.070;16.998;2023-03-23T11:26:05;19.00;79.20
2907;DHT22;1463;51.070;16.998;2023-03-23T11:28:37;19.00;78.80
2907;DHT22;1463;51.070;16.998;2023-03-23T11:31:09;19.00;79.00
2907;DHT22;1463;51.070;16.998;2023-03-23T11:33:47;19.00;79.20
2907;DHT22;1463;51.070;16.998;2023-03-23T11:36:17;18.90;78.90
2907;DHT22;1463;51.070;16.998;2023-03-23T11:38:45;18.90;78.70
2907;DHT22;1463;51.070;16.998;2023-03-23T11:41:18;18.80;78.90
2907;DHT22;1463;51.070;16.998;2023-03-23T11:43:46;18.80;78.90
2907;DHT22;1463;51.070;16.998;2023-03-23T11:46:26;18.80;79.20
2907;DHT22;1463;51.070;16.998;2023-03-23T11:48:59;18.80;78.90
2907;DHT22;1463;51.070;16.998;2023-03-23T11:51:36;18.80;78.90
2907;DHT22;1463;51.070;16.998;2023-03-23T11:54:14;18.80;79.20
2907;DHT22;1463;51.070;16.998;2023-03-23T11:56:44;18.70;79.30
2907;DHT22;1463;51.070;16.998;2023-03-23T11:59:14;18.80;80.00
2907;DHT22;1463;51.070;16.998;2023-03-23T12:01:51;18.70;80.10
2907;DHT22;1463;51.070;16.998;2023-03-23T12:04:46;18.70;80.70
2907;DHT22;1463;51.070;16.998;2023-03-23T12:07:52;18.80;81.00
2907;DHT22;1463;51.070;16.998;2023-03-23T12:10:27;18.70;81.80
2907;DHT22;1463;51.070;16.998;2023-03-23T12:13:07;18.60;81.90
2907;DHT22;1463;51.070;16.998;2023-03-23T12:15:41;18.50;82.40
2907;DHT22;1463;51.070;16.998;2023-03-23T12:18:17;18.30;81.40
2907;DHT22;1463;51.070;16.998;2023-03-23T12:20:57;18.20;81.70
2907;DHT22;1463;51.070;16.998;2023-03-23T12:23:37;18.20;81.80
2907;DHT22;1463;51.070;16.998;2023-03-23T12:26:17;18.20;82.10
2907;DHT22;1463;51.070;16.998;2023-03-23T12:29:05;18.20;81.10
2907;DHT22;1463;51.070;16.998;2023-03-23T12:31:44;18.10;81.00
2907;DHT22;1463;51.070;16.998;2023-03-23T12:34:22;18.10;81.40
2907;DHT22;1463;51.070;16.998;2023-03-23T12:37:08;18.20;82.20
2907;DHT22;1463;51.070;16.998;2023-03-23T12:40:09;18.20;81.80
2907;DHT22;1463;51.070;16.998;2023-03-23T12:42:46;18.10;81.80
2907;DHT22;1463;51.070;16.998;2023-03-23T12:45:23;18.10;82.40
2907;DHT22;1463;51.070;16.998;2023-03-23T12:47:57;18.10;82.60
2907;DHT22;1463;51.070;16.998;2023-03-23T12:50:30;18.10;83.20
2907;DHT22;1463;51.070;16.998;2023-03-23T12:53:04;18.10;83.80
2907;DHT22;1463;51.070;16.998;2023-03-23T12:55:39;18.10;83.70
2907;DHT22;1463;51.070;16.998;2023-03-23T12:58:13;18.10;83.90
2907;DHT22;1463;51.070;16.998;2023-03-23T13:00:56;18.10;84.30
2907;DHT22;1463;51.070;16.998;2023-03-23T13:03:30;18.10;84.10
2907;DHT22;1463;51.070;16.998;2023-03-23T13:06:04;18.10;85.10
2907;DHT22;1463;51.070;16.998;2023-03-23T13:08:36;18.20;85.00
2907;DHT22;1463;51.070;16.998;2023-03-23T13:11:11;18.20;85.20
2907;DHT22;1463;51.070;16.998;2023-03-23T13:13:45;18.30;85.60
2907;DHT22;1463;51.070;16.998;2023-03-23T13:16:25;18.30;85.70
2907;DHT22;1463;51.070;16.998;2023-03-23T13:19:03;18.30;85.60
2907;DHT22;1463;51.070;16.998;2023-03-23T13:21:36;18.30;86.10
2907;DHT22;1463;51.070;16.998;2023-03-23T13:24:08;18.50;86.10
2907;DHT22;1463;51.070;16.998;2023-03-23T13:26:42;18.50;85.00
2907;DHT22;1463;51.070;16.998;2023-03-23T13:29:13;18.40;84.90
2907;DHT22;1463;51.070;16.998;2023-03-23T13:31:45;18.50;84.90
2907;DHT22;1463;51.070;16.998;2023-03-23T13:34:17;18.40;84.80
2907;DHT22;1463;51.070;16.998;2023-03-23T13:36:56;18.60;85.00
2907;DHT22;1463;51.070;16.998;2023-03-23T13:39:25;18.60;84.50
2907;DHT22;1463;51.070;16.998;2023-03-23T13:42:05;18.70;84.60
2907;DHT22;1463;51.070;16.998;2023-03-23T13:44:44;18.70;84.20
2907;DHT22;1463;51.070;16.998;2023-03-23T13:47:37;18.60;84.00
2907;DHT22;1463;51.070;16.998;2023-03-23T13:50:12;18.60;83.70
2907;DHT22;1463;51.070;16.998;2023-03-23T13:52:51;18.60;83.70
2907;DHT22;1463;51.070;16.998;2023-03-23T13:55:29;18.60;84.20
2907;DHT22;1463;51.070;16.998;2023-03-23T13:58:10;18.60;84.50
2907;DHT22;1463;51.070;16.998;2023-03-23T14:00:48;18.60;84.50
2907;DHT22;1463;51.070;16.998;2023-03-23T14:03:19;18.60;84.40
2907;DHT22;1463;51.070;16.998;2023-03-23T14:06:01;18.60;84.80
2907;DHT22;1463;51.070;16.998;2023-03-23T14:08:38;18.60;85.60
2907;DHT22;1463;51.070;16.998;2023-03-23T14:11:15;18.50;86.70
2907;DHT22;1463;51.070;16.998;2023-03-23T14:13:50;18.40;87.40
2907;DHT22;1463;51.070;16.998;2023-03-23T14:16:21;18.40;87.80
2907;DHT22;1463;51.070;16.998;2023-03-23T14:18:52;18.50;87.50
2907;DHT22;1463;51.070;16.998;2023-03-23T14:21:34;18.50;87.90
2907;DHT22;1463;51.070;16.998;2023-03-23T14:24:09;18.50;87.90
2907;DHT22;1463;51.070;16.998;2023-03-23T14:26:37;18.60;88.10
2907;DHT22;1463;51.070;16.998;2023-03-23T14:29:08;18.40;88.60
2907;DHT22;1463;51.070;16.998;2023-03-23T14:31:36;18.50;88.70
2907;DHT22;1463;51.070;16.998;2023-03-23T14:34:10;18.50;89.30
2907;DHT22;1463;51.070;16.998;2023-03-23T14:36:39;18.50;89.60
2907;DHT22;1463;51.070;16.998;2023-03-23T14:39:19;18.50;89.80
2907;DHT22;1463;51.070;16.998;2023-03-23T14:41:48;18.80;90.90
2907;DHT22;1463;51.070;16.998;2023-03-23T14:44:20;19.00;90.80
2907;DHT22;1463;51.070;16.998;2023-03-23T14:46:49;19.20;90.20
2907;DHT22;1463;51.070;16.998;2023-03-23T14:49:19;19.30;89.10
2907;DHT22;1463;51.070;16.998;2023-03-23T14:51:48;19.20;89.30
2907;DHT22;1463;51.070;16.998;2023-03-23T14:54:15;19.30;90.00
2907;DHT22;1463;51.070;16.998;2023-03-23T14:56:47;19.30;89.10
2907;DHT22;1463;51.070;16.998;2023-03-23T14:59:16;19.20;90.00
2907;DHT22;1463;51.070;16.998;2023-03-23T15:01:46;19.30;90.60
2907;DHT22;1463;51.070;16.998;2023-03-23T15:04:17;19.20;90.50
2907;DHT22;1463;51.070;16.998;2023-03-23T15:06:48;19.00;90.40
2907;DHT22;1463;51.070;16.998;2023-03-23T15:09:18;18.90;91.10
2907;DHT22;1463;51.070;16.998;2023-03-23T15:11:54;18.70;91.30
2907;DHT22;1463;51.070;16.998;2023-03-23T15:14:26;18.60;91.60
2907;DHT22;1463;51.070;16.998;2023-03-23T15:16:56;18.50;92.50
2907;DHT22;1463;51.070;16.998;2023-03-23T15:19:27;18.50;93.00
2907;DHT22;1463;51.070;16.998;2023-03-23T15:21:56;18.50;93.20
2907;DHT22;1463;51.070;16.998;2023-03-23T15:24:27;18.50;93.40
2907;DHT22;1463;51.070;16.998;2023-03-23T15:27:03;18.70;93.50
2907;DHT22;1463;51.070;16.998;2023-03-23T15:29:48;18.90;92.70
2907;DHT22;1463;51.070;16.998;2023-03-23T15:32:22;18.80;92.90
2907;DHT22;1463;51.070;16.998;2023-03-23T15:34:49;18.80;92.90
2907;DHT22;1463;51.070;16.998;2023-03-23T15:37:20;18.80;92.90
2907;DHT22;1463;51.070;16.998;2023-03-23T15:39:49;18.60;93.20
2907;DHT22;1463;51.070;16.998;2023-03-23T15:42:25;18.50;93.40
2907;DHT22;1463;51.070;16.998;2023-03-23T15:45:12;18.40;94.00
2907;DHT22;1463;51.070;16.998;2023-03-23T15:47:46;18.50;94.30
2907;DHT22;1463;51.070;16.998;2023-03-23T15:50:18;18.60;94.40
2907;DHT22;1463;51.070;16.998;2023-03-23T15:52:48;18.50;94.30
2907;DHT22;1463;51.070;16.998;2023-03-23T15:55:27;18.50;94.60
2907;DHT22;1463;51.070;16.998;2023-03-23T15:57:56;18.60;94.50
2907;DHT22;1463;51.070;16.998;2023-03-23T16:00:27;18.40;94.80
2907;DHT22;1463;51.070;16.998;2023-03-23T16:03:01;18.40;95.20
2907;DHT22;1463;51.070;16.998;2023-03-23T16:05:41;18.50;95.30
2907;DHT22;1463;51.070;16.998;2023-03-23T16:08:11;18.40;95.50
2907;DHT22;1463;51.070;16.998;2023-03-23T16:10:39;18.30;95.80
2907;DHT22;1463;51.070;16.998;2023-03-23T16:13:07;18.30;96.10
2907;DHT22;1463;51.070;16.998;2023-03-23T16:15:37;18.30;96.40
2907;DHT22;1463;51.070;16.998;2023-03-23T16:18:05;18.30;96.70
2907;DHT22;1463;51.070;16.998;2023-03-23T16:20:32;18.40;97.20